createdAt,value
2018-09-03T00:01:45.179Z,17.97
2018-09-03T00:04:48.992Z,18.02
2018-09-03T00:07:52.657Z,17.85
2018-09-03T00:10:56.294Z,17.76
2018-09-03T00:13:59.994Z,17.92
2018-09-03T00:17:04.038Z,17.93
2018-09-03T00:20:07.723Z,17.89
2018-09-03T00:23:11.352Z,18.09
2018-09-03T00:26:15.048Z,18.13
2018-09-03T00:29:18.698Z,18.14
2018-09-03T00:32:27.607Z,18.17
2018-09-03T00:35:36.452Z,18.08
2018-09-03T00:38:45.225Z,18.03
2018-09-03T00:41:54.150Z,18.07
2018-09-03T00:46:05.670Z,17.84
2018-09-03T00:49:09.310Z,17.66
2018-09-03T00:52:12.996Z,17.60
2018-09-03T00:55:16.680Z,17.64
2018-09-03T00:58:20.450Z,17.51
2018-09-03T01:01:24.051Z,17.47
2018-09-03T01:04:27.647Z,17.48
2018-09-03T01:07:31.320Z,17.50
2018-09-03T01:10:34.970Z,17.39
2018-09-03T01:13:38.625Z,17.35
2018-09-03T01:16:42.307Z,17.25
2018-09-03T01:19:45.879Z,17.06
2018-09-03T01:22:49.503Z,16.93
2018-09-03T01:25:53.210Z,16.84
2018-09-03T01:28:56.831Z,16.80
2018-09-03T01:32:00.544Z,16.87
2018-09-03T01:35:04.205Z,16.99
2018-09-03T01:38:07.866Z,17.03
2018-09-03T01:41:11.538Z,17.02
2018-09-03T01:44:15.283Z,16.91
2018-09-03T01:47:18.949Z,16.90
2018-09-03T01:50:22.528Z,16.98
2018-09-03T01:53:26.220Z,17.06
2018-09-03T01:56:29.887Z,16.90
2018-09-03T01:59:33.550Z,16.82
2018-09-03T02:02:37.201Z,16.66
2018-09-03T02:05:40.939Z,16.62
2018-09-03T02:08:44.748Z,16.76
2018-09-03T02:11:48.564Z,16.80
2018-09-03T02:14:52.276Z,16.80
2018-09-03T02:17:55.915Z,16.70
2018-09-03T02:20:59.689Z,16.62
2018-09-03T02:24:03.515Z,16.52
2018-09-03T02:27:07.309Z,16.56
2018-09-03T02:30:10.894Z,16.67
2018-09-03T02:33:14.636Z,16.71
2018-09-03T02:36:18.491Z,16.70
2018-09-03T02:39:22.219Z,16.70
2018-09-03T02:42:25.844Z,16.60
2018-09-03T02:45:29.539Z,16.48
2018-09-03T02:48:33.142Z,16.55
2018-09-03T02:51:36.845Z,16.50
2018-09-03T02:54:40.539Z,16.50
2018-09-03T02:57:44.250Z,16.74
2018-09-03T03:00:47.886Z,16.77
2018-09-03T03:03:51.601Z,16.88
2018-09-03T03:06:55.311Z,16.92
2018-09-03T03:09:59.020Z,16.88
2018-09-03T03:13:02.660Z,16.78
2018-09-03T03:16:06.428Z,16.64
2018-09-03T03:19:10.019Z,16.57
2018-09-03T03:22:13.661Z,16.63
2018-09-03T03:25:17.381Z,16.74
2018-09-03T03:28:20.949Z,16.76
2018-09-03T03:31:24.682Z,16.64
2018-09-03T03:34:28.265Z,16.64
2018-09-03T03:37:31.917Z,16.70
2018-09-03T03:40:35.631Z,16.62
2018-09-03T03:43:39.244Z,16.62
2018-09-03T03:46:42.881Z,16.62
2018-09-03T03:49:46.746Z,16.61
2018-09-03T03:52:50.421Z,16.60
2018-09-03T03:55:54.126Z,16.61
2018-09-03T03:58:57.926Z,16.64
2018-09-03T04:02:01.535Z,16.66
2018-09-03T04:05:05.571Z,16.69
2018-09-03T04:08:09.240Z,16.71
2018-09-03T04:11:12.841Z,16.67
2018-09-03T04:14:16.536Z,16.59
2018-09-03T04:17:20.183Z,16.57
2018-09-03T04:20:23.845Z,16.55
2018-09-03T04:23:27.597Z,16.51
2018-09-03T04:26:31.108Z,16.48
2018-09-03T04:29:34.780Z,16.49
2018-09-03T04:32:38.559Z,16.52
2018-09-03T04:35:42.213Z,16.52
2018-09-03T04:38:46.027Z,16.48
2018-09-03T04:41:49.652Z,16.45
2018-09-03T04:44:53.241Z,16.48
2018-09-03T04:47:57.137Z,16.56
2018-09-03T04:51:00.811Z,16.58
2018-09-03T04:54:04.527Z,16.64
2018-09-03T04:57:08.220Z,16.63
2018-09-03T05:00:14.381Z,16.64
2018-09-03T05:03:18.072Z,16.76
2018-09-03T05:06:21.649Z,16.76
2018-09-03T05:09:25.431Z,16.88
2018-09-03T05:12:29.091Z,16.94
2018-09-03T05:15:32.797Z,17.05
2018-09-03T05:18:36.491Z,17.05
2018-09-03T05:21:40.183Z,17.08
2018-09-03T05:24:43.911Z,17.19
2018-09-03T05:27:47.580Z,17.16
2018-09-03T05:30:51.242Z,17.18
2018-09-03T05:33:54.873Z,17.17
2018-09-03T05:36:58.528Z,17.19
2018-09-03T05:40:02.359Z,17.52
2018-09-03T05:43:06.156Z,17.69
2018-09-03T05:46:09.663Z,17.75
2018-09-03T05:49:13.349Z,17.69
2018-09-03T05:52:17.198Z,17.65
2018-09-03T05:55:21.246Z,17.56
2018-09-03T05:58:25.050Z,17.81
2018-09-03T06:01:28.771Z,17.94
2018-09-03T06:04:32.527Z,17.97
2018-09-03T06:07:36.112Z,18.21
2018-09-03T06:10:39.909Z,18.17
2018-09-03T06:13:43.448Z,18.35
2018-09-03T06:16:47.072Z,18.20
2018-09-03T06:19:51.007Z,18.14
2018-09-03T06:22:54.571Z,18.08
2018-09-03T06:25:58.240Z,18.08
2018-09-03T06:29:01.943Z,17.79
2018-09-03T06:32:05.551Z,17.85
2018-09-03T06:35:09.251Z,17.91
2018-09-03T06:38:12.834Z,18.00
2018-09-03T06:41:16.453Z,18.04
2018-09-03T06:44:20.152Z,18.10
2018-09-03T06:47:23.898Z,18.03
2018-09-03T06:50:27.541Z,18.07
2018-09-03T06:53:31.362Z,18.14
2018-09-03T06:56:34.961Z,18.12
2018-09-03T06:59:38.663Z,18.03
2018-09-03T07:02:42.791Z,18.18
2018-09-03T07:05:46.637Z,17.95
2018-09-03T07:08:50.184Z,18.15
2018-09-03T07:11:53.829Z,18.12
2018-09-03T07:14:57.448Z,18.23
2018-09-03T07:18:01.142Z,18.08
2018-09-03T07:21:04.857Z,18.47
2018-09-03T07:24:08.427Z,18.71
2018-09-03T07:27:12.054Z,19.69
2018-09-03T07:30:15.826Z,19.89
2018-09-03T07:33:19.657Z,19.95
2018-09-03T07:36:23.232Z,19.69
2018-09-03T07:39:26.932Z,19.50
2018-09-03T07:42:30.943Z,19.22
2018-09-03T07:45:34.547Z,18.98
2018-09-03T07:48:38.197Z,19.21
2018-09-03T07:51:41.923Z,19.37
2018-09-03T07:54:45.672Z,19.72
2018-09-03T07:57:49.294Z,20.11
2018-09-03T08:00:53.080Z,20.59
2018-09-03T08:03:56.754Z,21.05
2018-09-03T08:07:00.372Z,21.06
2018-09-03T08:10:04.024Z,20.49
2018-09-03T08:13:07.684Z,20.35
2018-09-03T08:16:12.125Z,20.24
2018-09-03T08:19:15.818Z,19.98
2018-09-03T08:22:19.453Z,20.14
2018-09-03T08:25:23.167Z,20.12
2018-09-03T08:28:26.909Z,20.22
2018-09-03T08:31:30.568Z,20.10
2018-09-03T08:34:34.184Z,20.13
2018-09-03T08:37:37.808Z,20.05
2018-09-03T08:40:41.503Z,20.29
2018-09-03T08:43:45.118Z,20.70
2018-09-03T08:46:48.733Z,21.04
2018-09-03T08:49:52.354Z,20.68
2018-09-03T08:52:56.175Z,20.84
2018-09-03T08:55:59.791Z,20.96
2018-09-03T08:59:03.416Z,21.09
2018-09-03T09:02:07.194Z,21.24
2018-09-03T09:05:10.754Z,21.67
2018-09-03T09:08:14.425Z,21.89
2018-09-03T09:11:18.250Z,21.84
2018-09-03T09:14:21.833Z,21.91
2018-09-03T09:17:25.507Z,21.98
2018-09-03T09:20:29.143Z,22.31
2018-09-03T09:23:32.705Z,22.07
2018-09-03T09:26:36.294Z,22.04
2018-09-03T09:29:39.834Z,22.14
2018-09-03T09:32:43.531Z,22.42
2018-09-03T09:35:47.244Z,22.62
2018-09-03T09:38:50.931Z,22.51
2018-09-03T09:41:54.551Z,22.81
2018-09-03T09:44:58.171Z,22.91
2018-09-03T09:48:01.970Z,23.21
2018-09-03T09:51:05.630Z,23.18
2018-09-03T09:54:09.368Z,23.46
2018-09-03T09:57:13.010Z,23.68
2018-09-03T10:00:21.893Z,23.85
2018-09-03T10:03:25.470Z,23.79
2018-09-03T10:06:29.135Z,23.66
2018-09-03T10:09:32.719Z,23.29
2018-09-03T10:12:36.396Z,23.80
2018-09-03T10:15:40.034Z,24.01
2018-09-03T10:18:43.664Z,23.82
2018-09-03T10:21:47.347Z,24.09
2018-09-03T10:24:51.044Z,24.19
2018-09-03T10:27:54.665Z,24.32
2018-09-03T10:30:58.334Z,23.81
2018-09-03T10:34:01.987Z,23.89
2018-09-03T10:37:06.325Z,23.81
2018-09-03T10:40:09.966Z,23.42
2018-09-03T10:43:13.671Z,23.67
2018-09-03T10:46:17.292Z,23.81
2018-09-03T10:49:21.024Z,23.75
2018-09-03T10:52:24.695Z,24.17
2018-09-03T10:55:28.340Z,24.19
2018-09-03T10:58:32.018Z,24.25
2018-09-03T11:01:35.564Z,23.95
2018-09-03T11:04:39.204Z,24.27
2018-09-03T11:07:42.836Z,24.55
2018-09-03T11:10:46.499Z,24.77
2018-09-03T11:13:50.265Z,24.87
2018-09-03T11:16:53.904Z,24.65
2018-09-03T11:19:59.835Z,24.76
2018-09-03T11:23:03.382Z,24.84
2018-09-03T11:26:07.264Z,24.83
2018-09-03T11:29:10.907Z,24.78
2018-09-03T11:32:14.619Z,24.92
2018-09-03T11:35:18.336Z,25.09
2018-09-03T11:38:21.914Z,25.20
2018-09-03T11:41:25.561Z,25.28
2018-09-03T11:44:29.172Z,25.39
2018-09-03T11:47:32.886Z,25.30
2018-09-03T11:50:36.533Z,25.22
2018-09-03T11:53:40.330Z,25.43
2018-09-03T11:56:44.010Z,25.36
2018-09-03T11:59:47.650Z,25.22
2018-09-03T12:02:51.321Z,25.15
2018-09-03T12:05:56.166Z,25.04
2018-09-03T12:08:59.830Z,25.00
2018-09-03T12:12:03.490Z,24.65
2018-09-03T12:16:11.814Z,24.61
2018-09-03T12:19:15.620Z,24.44
2018-09-03T12:22:19.256Z,24.54
2018-09-03T12:25:22.913Z,24.78
2018-09-03T12:28:26.618Z,24.63
2018-09-03T12:31:30.301Z,24.91
2018-09-03T12:34:33.886Z,25.13
2018-09-03T12:37:37.548Z,25.28
2018-09-03T12:40:41.320Z,25.34
2018-09-03T12:43:45.086Z,25.15
2018-09-03T12:46:48.802Z,25.27
2018-09-03T12:49:52.492Z,25.42
2018-09-03T12:52:56.254Z,25.37
2018-09-03T12:56:00.011Z,25.18
2018-09-03T12:59:03.857Z,25.25
2018-09-03T13:02:10.671Z,25.17
2018-09-03T13:05:14.422Z,25.13
2018-09-03T13:08:18.085Z,25.08
2018-09-03T13:11:21.741Z,25.29
2018-09-03T13:14:25.398Z,25.44
2018-09-03T13:17:29.320Z,25.52
2018-09-03T13:20:32.936Z,25.71
2018-09-03T13:23:36.677Z,26.04
2018-09-03T13:26:40.431Z,26.27
2018-09-03T13:29:44.168Z,26.68
2018-09-03T13:32:47.836Z,26.57
2018-09-03T13:35:51.532Z,26.78
2018-09-03T13:38:55.322Z,27.01
2018-09-03T13:41:59.172Z,26.58
2018-09-03T13:45:02.897Z,26.87
2018-09-03T13:48:06.571Z,27.04
2018-09-03T13:51:10.212Z,27.26
2018-09-03T13:54:14.127Z,27.16
2018-09-03T13:57:17.825Z,26.97
2018-09-03T14:00:21.530Z,26.85
2018-09-03T14:03:25.199Z,26.84
2018-09-03T14:06:28.960Z,26.41
2018-09-03T14:09:33.764Z,26.61
2018-09-03T14:12:37.536Z,26.62
2018-09-03T14:15:42.107Z,26.76
2018-09-03T14:18:45.873Z,26.81
2018-09-03T14:21:49.706Z,26.78
2018-09-03T14:24:53.544Z,26.45
2018-09-03T14:27:57.333Z,26.26
2018-09-03T14:31:01.167Z,26.35
2018-09-03T14:34:04.882Z,26.28
2018-09-03T14:37:08.798Z,26.20
2018-09-03T14:40:12.495Z,26.25
2018-09-03T14:43:16.175Z,26.25
2018-09-03T14:46:20.138Z,26.26
2018-09-03T14:49:23.711Z,26.19
2018-09-03T14:52:27.847Z,25.96
2018-09-03T14:55:31.528Z,25.61
2018-09-03T14:58:35.178Z,25.74
2018-09-03T15:01:39.134Z,25.77
2018-09-03T15:04:42.897Z,25.83
2018-09-03T15:07:46.595Z,25.74
2018-09-03T15:10:50.297Z,25.68
2018-09-03T15:13:58.113Z,25.50
2018-09-03T15:17:01.833Z,25.60
2018-09-03T15:20:06.467Z,25.57
2018-09-03T15:23:10.072Z,25.54
2018-09-03T15:26:13.910Z,25.33
2018-09-03T15:29:17.648Z,25.05
2018-09-03T15:32:21.477Z,24.79
2018-09-03T15:35:25.163Z,24.72
2018-09-03T15:38:28.829Z,24.55
2018-09-03T15:41:32.502Z,24.60
2018-09-03T15:44:36.150Z,24.26
2018-09-03T15:47:39.945Z,24.25
2018-09-03T15:50:43.678Z,24.16
2018-09-03T15:53:47.480Z,24.27
2018-09-03T15:56:51.319Z,24.46
2018-09-03T15:59:54.993Z,24.68
2018-09-03T16:02:58.783Z,24.95
2018-09-03T16:06:02.423Z,25.05
2018-09-03T16:09:09.142Z,25.36
2018-09-03T16:12:12.787Z,25.15
2018-09-03T16:15:17.214Z,25.10
2018-09-03T16:18:20.929Z,25.12
2018-09-03T16:21:24.687Z,24.95
2018-09-03T16:24:28.405Z,24.83
2018-09-03T16:27:32.323Z,24.45
2018-09-03T16:30:36.030Z,24.32
2018-09-03T16:33:39.974Z,24.30
2018-09-03T16:36:43.661Z,24.29
2018-09-03T16:39:47.447Z,24.25
2018-09-03T16:42:51.092Z,24.11
2018-09-03T16:45:54.805Z,24.04
2018-09-03T16:48:58.597Z,23.86
2018-09-03T16:52:02.360Z,23.77
2018-09-03T16:55:06.216Z,23.70
2018-09-03T16:58:09.894Z,23.62
2018-09-03T17:01:13.820Z,23.71
2018-09-03T17:04:17.458Z,23.72
2018-09-03T17:07:21.224Z,23.66
2018-09-03T17:10:25.118Z,23.53
2018-09-03T17:13:28.758Z,23.40
2018-09-03T17:16:32.467Z,23.37
2018-09-03T17:19:36.184Z,23.28
2018-09-03T17:22:39.850Z,23.07
2018-09-03T17:25:43.633Z,22.92
2018-09-03T17:28:47.300Z,22.94
2018-09-03T17:31:51.015Z,22.96
2018-09-03T17:34:54.765Z,22.99
2018-09-03T17:37:58.516Z,22.95
2018-09-03T17:41:02.266Z,22.87
2018-09-03T17:44:06.169Z,22.86
2018-09-03T17:47:09.855Z,22.85
2018-09-03T17:50:13.600Z,22.77
2018-09-03T17:53:17.431Z,22.69
2018-09-03T17:56:21.187Z,22.61
2018-09-03T17:59:25.075Z,22.54
2018-09-03T18:02:28.792Z,22.52
2018-09-03T18:05:32.606Z,22.57
2018-09-03T18:08:36.389Z,22.46
2018-09-03T18:11:40.199Z,22.44
2018-09-03T18:14:43.954Z,22.40
2018-09-03T18:17:47.659Z,22.38
2018-09-03T18:20:51.545Z,22.26
2018-09-03T18:23:55.284Z,22.10
2018-09-03T18:26:59.104Z,22.33
2018-09-03T18:30:02.939Z,22.12
2018-09-03T18:33:06.825Z,21.92
2018-09-03T18:36:10.539Z,21.73
2018-09-03T18:39:14.360Z,21.50
2018-09-03T18:42:18.264Z,21.28
2018-09-03T18:45:22.216Z,21.08
2018-09-03T18:48:26.316Z,20.98
2018-09-03T18:51:30.309Z,20.98
2018-09-03T18:54:34.148Z,21.01
2018-09-03T18:57:38.296Z,21.08
2018-09-03T19:00:42.137Z,21.02
2018-09-03T19:03:46.204Z,20.99
2018-09-03T19:06:50.023Z,20.96
2018-09-03T19:09:53.892Z,20.88
2018-09-03T19:12:57.886Z,20.91
2018-09-03T19:16:02.059Z,20.98
2018-09-03T19:19:06.043Z,21.04
2018-09-03T19:22:10.116Z,20.98
2018-09-03T19:25:13.896Z,20.88
2018-09-03T19:28:17.875Z,20.87
2018-09-03T19:31:21.699Z,20.98
2018-09-03T19:34:25.544Z,20.84
2018-09-03T19:37:29.318Z,20.99
2018-09-03T19:40:33.115Z,21.04
2018-09-03T19:43:36.900Z,21.10
2018-09-03T19:46:40.671Z,21.07
2018-09-03T19:49:44.514Z,21.08
2018-09-03T19:52:48.235Z,21.09
2018-09-03T19:55:52.217Z,21.00
2018-09-03T19:58:56.095Z,20.99
2018-09-03T20:02:00.133Z,21.01
2018-09-03T20:05:04.028Z,21.00
2018-09-03T20:08:10.534Z,20.89
2018-09-03T20:11:14.551Z,20.77
2018-09-03T20:14:18.343Z,20.70
2018-09-03T20:17:23.701Z,20.76
2018-09-03T20:20:27.475Z,20.75
2018-09-03T20:23:31.302Z,20.66
2018-09-03T20:26:35.836Z,20.69
2018-09-03T20:29:39.951Z,20.72
2018-09-03T20:32:43.808Z,20.68
2018-09-03T20:35:47.619Z,20.66
2018-09-03T20:38:52.271Z,20.63
2018-09-03T20:41:56.050Z,20.68
2018-09-03T20:44:59.712Z,20.68
2018-09-03T20:48:03.592Z,20.63
2018-09-03T20:51:09.050Z,20.55
2018-09-03T20:54:12.770Z,20.44
2018-09-03T20:57:16.544Z,20.60
2018-09-03T21:00:20.352Z,20.47
2018-09-03T21:03:24.044Z,20.36
2018-09-03T21:06:27.872Z,20.34
2018-09-03T21:09:31.507Z,20.33
2018-09-03T21:12:35.211Z,20.35
2018-09-03T21:15:39.069Z,20.28
2018-09-03T21:18:42.707Z,20.25
2018-09-03T21:21:46.418Z,20.25
2018-09-03T21:24:50.119Z,20.30
2018-09-03T21:27:54.037Z,20.25
2018-09-03T21:30:57.750Z,20.27
2018-09-03T21:34:01.501Z,20.27
2018-09-03T21:37:05.340Z,20.27
2018-09-03T21:40:09.179Z,20.36
2018-09-03T21:43:13.017Z,20.41
2018-09-03T21:46:16.693Z,20.31
2018-09-03T21:49:20.424Z,20.36
2018-09-03T21:52:24.238Z,20.36
2018-09-03T21:55:28.031Z,20.37
2018-09-03T21:58:31.720Z,20.29
2018-09-03T22:01:35.384Z,20.22
2018-09-03T22:04:40.962Z,20.27
2018-09-03T22:07:44.861Z,20.29
2018-09-03T22:10:48.522Z,20.28
2018-09-03T22:13:52.207Z,20.21
2018-09-03T22:16:55.875Z,20.19
2018-09-03T22:19:59.604Z,20.15
2018-09-03T22:23:03.227Z,20.26
2018-09-03T22:26:07.146Z,20.21
2018-09-03T22:29:10.846Z,20.15
2018-09-03T22:32:14.642Z,20.03
2018-09-03T22:35:18.346Z,19.97
2018-09-03T22:38:22.318Z,19.96
2018-09-03T22:41:26.023Z,20.01
2018-09-03T22:44:29.749Z,20.01
2018-09-03T22:47:33.466Z,19.96
2018-09-03T22:50:37.116Z,19.94
2018-09-03T22:53:40.798Z,19.91
2018-09-03T22:56:44.428Z,20.13
2018-09-03T22:59:48.142Z,20.20
2018-09-03T23:02:52.022Z,20.18
2018-09-03T23:05:55.641Z,20.13
2018-09-03T23:08:59.407Z,19.94
2018-09-03T23:12:03.146Z,19.76
2018-09-03T23:15:07.522Z,19.62
2018-09-03T23:18:11.213Z,19.44
2018-09-03T23:21:15.011Z,19.26
2018-09-03T23:24:18.671Z,19.23
2018-09-03T23:27:22.356Z,19.10
2018-09-03T23:30:26.008Z,18.98
2018-09-03T23:33:29.674Z,18.93
2018-09-03T23:36:33.451Z,18.76
2018-09-03T23:39:37.072Z,18.67
2018-09-03T23:42:40.746Z,18.58
2018-09-03T23:45:44.446Z,18.48
2018-09-03T23:48:48.108Z,18.40
2018-09-03T23:51:51.863Z,18.33
2018-09-03T23:54:55.503Z,18.33
2018-09-03T23:57:59.213Z,18.26
